createdAt,value
2018-09-10T00:01:06.673Z,86.55
2018-09-10T00:03:35.212Z,87.65
2018-09-10T00:06:03.812Z,89.78
2018-09-10T00:08:32.357Z,88.44
2018-09-10T00:11:00.941Z,89.74
2018-09-10T00:13:29.486Z,89.83
2018-09-10T00:15:58.079Z,90.13
2018-09-10T00:18:26.641Z,89.48
2018-09-10T00:20:55.244Z,88.75
2018-09-10T00:23:23.825Z,88.04
2018-09-10T00:25:52.417Z,87.17
2018-09-10T00:28:21.234Z,86.95
2018-09-10T00:30:49.771Z,87.04
2018-09-10T00:33:20.131Z,88.09
2018-09-10T00:35:48.865Z,86.69
2018-09-10T00:38:17.446Z,87.24
2018-09-10T00:40:46.000Z,88.42
2018-09-10T00:43:14.583Z,88.04
2018-09-10T00:45:45.627Z,87.93
2018-09-10T00:48:15.380Z,88.08
2018-09-10T00:50:44.273Z,88.20
2018-09-10T00:53:12.852Z,87.24
2018-09-10T00:55:41.437Z,87.33
2018-09-10T00:58:10.052Z,87.99
2018-09-10T01:00:38.621Z,87.95
2018-09-10T01:03:07.241Z,89.21
2018-09-10T01:05:35.785Z,87.86
2018-09-10T01:08:04.366Z,89.07
2018-09-10T01:10:32.914Z,88.01
2018-09-10T01:13:01.513Z,87.57
2018-09-10T01:15:30.052Z,87.98
2018-09-10T01:17:58.639Z,88.13
2018-09-10T01:20:27.217Z,88.41
2018-09-10T01:22:55.789Z,88.58
2018-09-10T01:25:24.381Z,89.37
2018-09-10T01:27:53.188Z,92.55
2018-09-10T01:30:21.703Z,92.23
2018-09-10T01:32:50.267Z,89.44
2018-09-10T01:35:18.785Z,88.63
2018-09-10T01:37:47.368Z,90.38
2018-09-10T01:40:15.893Z,89.25
2018-09-10T01:42:44.429Z,89.73
2018-09-10T01:45:12.941Z,90.51
2018-09-10T01:47:41.517Z,92.26
2018-09-10T01:50:10.036Z,91.04
2018-09-10T01:52:38.610Z,90.04
2018-09-10T01:55:07.141Z,90.68
2018-09-10T01:57:35.713Z,89.20
2018-09-10T02:00:04.457Z,88.15
2018-09-10T02:02:33.013Z,91.61
2018-09-10T02:05:01.537Z,91.53
2018-09-10T02:07:30.088Z,92.80
2018-09-10T02:09:58.620Z,91.06
2018-09-10T02:12:27.176Z,90.86
2018-09-10T02:14:56.550Z,91.21
2018-09-10T02:17:25.795Z,90.95
2018-09-10T02:19:54.672Z,92.34
2018-09-10T02:22:23.198Z,91.36
2018-09-10T02:24:51.864Z,91.06
2018-09-10T02:27:20.414Z,91.49
2018-09-10T02:29:48.981Z,91.68
2018-09-10T02:32:17.518Z,92.11
2018-09-10T02:34:46.100Z,93.63
2018-09-10T02:37:14.611Z,93.09
2018-09-10T02:39:43.163Z,91.72
2018-09-10T02:42:11.682Z,91.83
2018-09-10T02:44:40.265Z,92.62
2018-09-10T02:47:08.821Z,92.49
2018-09-10T02:49:37.389Z,92.22
2018-09-10T02:52:05.996Z,91.12
2018-09-10T02:54:34.580Z,90.90
2018-09-10T02:57:03.295Z,91.74
2018-09-10T02:59:31.867Z,92.10
2018-09-10T03:02:00.398Z,92.14
2018-09-10T03:04:28.992Z,93.04
2018-09-10T03:06:57.516Z,92.43
2018-09-10T03:09:26.069Z,92.68
2018-09-10T03:11:54.577Z,92.20
2018-09-10T03:14:23.133Z,93.72
2018-09-10T03:16:51.658Z,93.53
2018-09-10T03:19:20.218Z,92.68
2018-09-10T03:21:48.774Z,93.25
2018-09-10T03:24:17.408Z,93.53
2018-09-10T03:26:45.929Z,92.92
2018-09-10T03:29:14.490Z,93.67
2018-09-10T03:31:43.009Z,93.46
2018-09-10T03:34:11.555Z,93.23
2018-09-10T03:36:40.072Z,92.58
2018-09-10T03:39:09.848Z,92.57
2018-09-10T03:41:38.377Z,93.35
2018-09-10T03:44:06.960Z,93.81
2018-09-10T03:46:35.508Z,94.13
2018-09-10T03:49:04.088Z,94.87
2018-09-10T03:51:32.623Z,93.90
2018-09-10T03:54:07.559Z,94.20
2018-09-10T03:56:36.124Z,94.64
2018-09-10T03:59:04.693Z,95.39
2018-09-10T04:01:33.774Z,94.55
2018-09-10T04:04:02.331Z,93.67
2018-09-10T04:06:30.852Z,93.47
2018-09-10T04:08:59.397Z,93.37
2018-09-10T04:11:28.017Z,93.13
2018-09-10T04:13:56.537Z,94.06
2018-09-10T04:16:25.185Z,93.95
2018-09-10T04:18:54.043Z,93.88
2018-09-10T04:21:22.673Z,93.45
2018-09-10T04:23:51.217Z,94.72
2018-09-10T04:26:19.781Z,93.46
2018-09-10T04:28:48.305Z,92.51
2018-09-10T04:31:16.853Z,92.79
2018-09-10T04:33:45.389Z,93.74
2018-09-10T04:36:17.800Z,94.05
2018-09-10T04:38:46.601Z,93.78
2018-09-10T04:41:15.168Z,93.96
2018-09-10T04:43:43.712Z,94.62
2018-09-10T04:46:12.306Z,93.75
2018-09-10T04:48:40.829Z,93.77
2018-09-10T04:51:12.914Z,94.66
2018-09-10T04:53:41.733Z,94.59
2018-09-10T04:56:10.288Z,93.81
2018-09-10T04:58:39.566Z,94.20
2018-09-10T05:01:08.944Z,93.24
2018-09-10T05:03:37.505Z,93.10
2018-09-10T05:06:07.141Z,94.23
2018-09-10T05:08:35.671Z,96.16
2018-09-10T05:11:04.236Z,95.65
2018-09-10T05:13:32.898Z,96.76
2018-09-10T05:16:01.786Z,95.21
2018-09-10T05:18:30.596Z,93.87
2018-09-10T05:21:00.388Z,93.14
2018-09-10T05:23:28.930Z,93.12
2018-09-10T05:25:57.481Z,92.78
2018-09-10T05:28:26.006Z,91.71
2018-09-10T05:30:54.576Z,93.58
2018-09-10T05:33:23.302Z,93.49
2018-09-10T05:35:51.897Z,93.72
2018-09-10T05:38:20.434Z,93.11
2018-09-10T05:40:48.987Z,92.91
2018-09-10T05:43:17.505Z,92.59
2018-09-10T05:45:46.118Z,92.52
2018-09-10T05:48:14.632Z,92.80
2018-09-10T05:50:43.200Z,90.64
2018-09-10T05:53:11.805Z,91.87
2018-09-10T05:55:40.425Z,91.29
2018-09-10T05:58:08.904Z,91.66
2018-09-10T06:00:37.926Z,91.20
2018-09-10T06:03:06.521Z,89.60
2018-09-10T06:05:35.057Z,88.64
2018-09-10T06:08:03.644Z,88.73
2018-09-10T06:10:32.234Z,89.54
2018-09-10T06:13:00.784Z,88.43
2018-09-10T06:15:29.319Z,88.89
2018-09-10T06:17:57.883Z,88.13
2018-09-10T06:20:26.458Z,88.82
2018-09-10T06:22:55.028Z,88.64
2018-09-10T06:25:23.564Z,88.81
2018-09-10T06:27:52.109Z,88.32
2018-09-10T06:30:20.667Z,86.46
2018-09-10T06:32:49.269Z,85.73
2018-09-10T06:35:17.795Z,86.58
2018-09-10T06:37:46.355Z,85.10
2018-09-10T06:40:15.219Z,85.38
2018-09-10T06:42:44.092Z,85.00
2018-09-10T06:45:12.625Z,83.83
2018-09-10T06:47:41.243Z,84.17
2018-09-10T06:50:09.769Z,83.77
2018-09-10T06:52:38.426Z,83.68
2018-09-10T06:55:07.110Z,84.13
2018-09-10T06:57:35.673Z,84.22
2018-09-10T07:00:04.257Z,83.83
2018-09-10T07:02:33.328Z,83.68
2018-09-10T07:05:01.870Z,82.24
2018-09-10T07:07:30.444Z,81.48
2018-09-10T07:09:59.231Z,81.16
2018-09-10T07:12:27.977Z,80.38
2018-09-10T07:14:56.647Z,79.57
2018-09-10T07:17:25.317Z,80.23
2018-09-10T07:19:54.408Z,79.24
2018-09-10T07:22:23.380Z,78.86
2018-09-10T07:24:52.098Z,79.19
2018-09-10T07:27:20.909Z,78.93
2018-09-10T07:29:49.554Z,77.77
2018-09-10T07:32:18.208Z,77.93
2018-09-10T07:34:46.954Z,77.44
2018-09-10T07:37:15.724Z,77.71
2018-09-10T07:39:44.858Z,77.39
2018-09-10T07:42:13.513Z,76.67
2018-09-10T07:44:42.149Z,77.10
2018-09-10T07:47:11.016Z,76.75
2018-09-10T07:49:39.730Z,75.14
2018-09-10T07:52:08.444Z,74.93
2018-09-10T07:54:37.179Z,74.51
2018-09-10T07:57:06.129Z,74.49
2018-09-10T07:59:34.705Z,73.82
2018-09-10T08:02:03.480Z,73.03
2018-09-10T08:04:32.049Z,72.34
2018-09-10T08:07:00.588Z,71.94
2018-09-10T08:09:29.181Z,71.98
2018-09-10T08:11:57.734Z,72.62
2018-09-10T08:14:26.302Z,71.36
2018-09-10T08:16:54.867Z,71.16
2018-09-10T08:19:23.465Z,70.79
2018-09-10T08:21:52.022Z,69.92
2018-09-10T08:24:20.740Z,69.97
2018-09-10T08:26:49.197Z,69.16
2018-09-10T08:29:17.770Z,69.52
2018-09-10T08:31:46.297Z,69.37
2018-09-10T08:34:14.887Z,69.13
2018-09-10T08:36:43.450Z,69.13
2018-09-10T08:39:12.081Z,68.94
2018-09-10T08:41:40.627Z,69.49
2018-09-10T08:44:09.225Z,69.03
2018-09-10T08:46:37.772Z,68.29
2018-09-10T08:49:06.426Z,67.36
2018-09-10T08:51:34.973Z,67.46
2018-09-10T08:54:03.655Z,66.77
2018-09-10T08:56:32.145Z,66.14
2018-09-10T08:59:00.774Z,66.35
2018-09-10T09:01:29.757Z,66.86
2018-09-10T09:03:58.941Z,66.67
2018-09-10T09:06:27.575Z,65.66
2018-09-10T09:08:56.080Z,66.08
2018-09-10T09:11:24.637Z,64.33
2018-09-10T09:13:53.250Z,63.75
2018-09-10T09:16:21.796Z,64.46
2018-09-10T09:18:50.453Z,64.70
2018-09-10T09:21:18.985Z,64.85
2018-09-10T09:23:47.558Z,64.30
2018-09-10T09:26:16.092Z,63.89
2018-09-10T09:28:44.663Z,62.62
2018-09-10T09:31:13.212Z,62.83
2018-09-10T09:33:41.796Z,62.65
2018-09-10T09:36:15.574Z,61.89
2018-09-10T09:38:49.184Z,62.93
2018-09-10T09:41:22.898Z,62.00
2018-09-10T09:43:56.694Z,61.96
2018-09-10T09:46:25.237Z,62.00
2018-09-10T09:48:53.946Z,60.26
2018-09-10T09:51:22.498Z,60.64
2018-09-10T09:53:51.073Z,60.87
2018-09-10T09:56:19.617Z,61.43
2018-09-10T09:58:48.153Z,61.11
2018-09-10T10:01:22.141Z,60.08
2018-09-10T10:03:55.265Z,61.01
2018-09-10T10:06:24.979Z,61.27
2018-09-10T10:08:53.754Z,58.66
2018-09-10T10:11:22.424Z,59.32
2018-09-10T10:13:51.164Z,58.56
2018-09-10T10:16:19.909Z,56.32
2018-09-10T10:18:48.453Z,55.61
2018-09-10T10:21:17.031Z,55.04
2018-09-10T10:23:45.566Z,55.25
2018-09-10T10:26:14.136Z,56.08
2018-09-10T10:28:42.676Z,58.45
2018-09-10T10:31:11.313Z,58.72
2018-09-10T10:33:39.870Z,59.42
2018-09-10T10:36:08.464Z,58.48
2018-09-10T10:38:37.017Z,57.83
2018-09-10T10:41:05.669Z,57.30
2018-09-10T10:43:34.260Z,57.73
2018-09-10T10:46:02.821Z,57.36
2018-09-10T10:48:31.393Z,56.15
2018-09-10T10:50:59.973Z,56.72
2018-09-10T10:53:28.549Z,56.73
2018-09-10T10:55:57.306Z,57.90
2018-09-10T10:58:25.954Z,58.11
2018-09-10T11:00:56.155Z,56.47
2018-09-10T11:03:24.749Z,55.79
2018-09-10T11:05:54.884Z,54.84
2018-09-10T11:08:23.489Z,55.44
2018-09-10T11:10:52.057Z,53.07
2018-09-10T11:13:20.580Z,51.67
2018-09-10T11:15:49.301Z,50.64
2018-09-10T11:18:17.838Z,50.90
2018-09-10T11:20:47.122Z,48.47
2018-09-10T11:23:15.651Z,48.53
2018-09-10T11:25:44.216Z,47.81
2018-09-10T11:28:12.801Z,49.58
2018-09-10T11:30:41.374Z,47.13
2018-09-10T11:33:09.949Z,45.89
2018-09-10T11:35:38.529Z,46.10
2018-09-10T11:38:07.103Z,45.75
2018-09-10T11:40:35.657Z,46.12
2018-09-10T11:43:04.205Z,47.40
2018-09-10T11:45:32.775Z,47.13
2018-09-10T11:48:01.349Z,44.93
2018-09-10T11:50:29.921Z,45.04
2018-09-10T11:52:58.444Z,44.80
2018-09-10T11:55:27.042Z,46.12
2018-09-10T11:57:57.930Z,46.76
2018-09-10T12:00:26.552Z,45.05
2018-09-10T12:02:55.117Z,45.06
2018-09-10T12:05:23.654Z,44.14
2018-09-10T12:07:52.359Z,44.40
2018-09-10T12:10:20.877Z,43.97
2018-09-10T12:12:49.424Z,43.57
2018-09-10T12:15:17.953Z,43.65
2018-09-10T12:17:46.593Z,44.36
2018-09-10T12:20:15.134Z,43.48
2018-09-10T12:22:43.699Z,43.87
2018-09-10T12:25:12.544Z,44.24
2018-09-10T12:27:41.364Z,43.45
2018-09-10T12:30:10.305Z,44.62
2018-09-10T12:32:40.058Z,44.20
2018-09-10T12:35:09.911Z,44.61
2018-09-10T12:37:38.671Z,44.39
2018-09-10T12:40:08.511Z,44.97
2018-09-10T12:42:37.176Z,45.55
2018-09-10T12:45:05.825Z,45.21
2018-09-10T12:47:34.389Z,44.75
2018-09-10T12:50:02.957Z,43.78
2018-09-10T12:52:31.611Z,43.92
2018-09-10T12:55:00.142Z,44.01
2018-09-10T12:57:28.687Z,44.50
2018-09-10T12:59:57.649Z,45.44
2018-09-10T13:02:27.064Z,44.95
2018-09-10T13:04:55.675Z,44.19
2018-09-10T13:07:24.250Z,44.27
2018-09-10T13:09:52.772Z,44.37
2018-09-10T13:12:21.332Z,43.87
2018-09-10T13:14:49.873Z,43.79
2018-09-10T13:17:18.493Z,43.69
2018-09-10T13:19:53.501Z,43.18
2018-09-10T13:22:22.082Z,43.07
2018-09-10T13:24:50.620Z,43.38
2018-09-10T13:27:19.181Z,43.44
2018-09-10T13:29:47.732Z,42.67
2018-09-10T13:32:16.320Z,42.64
2018-09-10T13:34:44.944Z,42.62
2018-09-10T13:37:13.646Z,43.25
2018-09-10T13:39:42.290Z,43.76
2018-09-10T13:42:11.107Z,43.61
2018-09-10T13:44:39.742Z,42.93
2018-09-10T13:47:08.354Z,42.35
2018-09-10T13:49:38.694Z,42.26
2018-09-10T13:52:07.388Z,42.48
2018-09-10T13:54:36.010Z,42.24
2018-09-10T13:57:04.588Z,41.94
2018-09-10T13:59:33.242Z,41.81
2018-09-10T14:02:07.223Z,41.93
2018-09-10T14:04:44.468Z,41.73
2018-09-10T14:07:13.382Z,42.19
2018-09-10T14:09:41.994Z,42.22
2018-09-10T14:12:10.587Z,41.73
2018-09-10T14:14:39.220Z,41.70
2018-09-10T14:17:07.797Z,42.47
2018-09-10T14:19:36.386Z,42.05
2018-09-10T14:22:04.943Z,42.19
2018-09-10T14:24:33.508Z,41.89
2018-09-10T14:27:02.093Z,41.85
2018-09-10T14:29:30.652Z,41.09
2018-09-10T14:31:59.233Z,41.27
2018-09-10T14:34:28.658Z,41.17
2018-09-10T14:36:57.228Z,40.96
2018-09-10T14:39:25.792Z,40.94
2018-09-10T14:41:54.533Z,41.41
2018-09-10T14:44:24.526Z,41.24
2018-09-10T14:46:56.129Z,42.07
2018-09-10T14:49:27.036Z,41.92
2018-09-10T14:51:57.757Z,41.79
2018-09-10T14:54:27.923Z,41.88
2018-09-10T14:56:57.411Z,42.11
2018-09-10T14:59:27.754Z,42.05
2018-09-10T15:01:57.720Z,41.87
2018-09-10T15:04:29.232Z,41.86
2018-09-10T15:07:02.456Z,41.81
2018-09-10T15:09:31.785Z,41.08
2018-09-10T15:12:04.685Z,41.67
2018-09-10T15:14:37.819Z,41.67
2018-09-10T15:17:08.877Z,41.63
2018-09-10T15:19:42.025Z,41.27
2018-09-10T15:22:13.330Z,40.44
2018-09-10T15:24:46.104Z,40.41
2018-09-10T15:27:19.206Z,40.36
2018-09-10T15:29:48.476Z,40.57
2018-09-10T15:32:18.649Z,41.01
2018-09-10T15:34:49.314Z,39.40
2018-09-10T15:37:19.898Z,39.86
2018-09-10T15:39:51.040Z,39.84
2018-09-10T15:42:20.235Z,39.30
2018-09-10T15:44:48.873Z,39.91
2018-09-10T15:47:22.092Z,38.59
2018-09-10T15:49:55.028Z,40.29
2018-09-10T15:52:28.260Z,39.92
2018-09-10T15:54:58.240Z,40.27
2018-09-10T15:57:29.304Z,39.69
2018-09-10T16:00:00.764Z,39.70
2018-09-10T16:02:30.822Z,40.14
2018-09-10T16:05:01.669Z,40.50
2018-09-10T16:07:33.999Z,39.75
2018-09-10T16:10:03.389Z,40.49
2018-09-10T16:12:31.927Z,40.39
2018-09-10T16:15:00.501Z,39.70
2018-09-10T16:17:29.031Z,41.08
2018-09-10T16:19:57.648Z,40.65
2018-09-10T16:22:26.179Z,40.94
2018-09-10T16:24:54.759Z,41.21
2018-09-10T16:27:23.339Z,41.42
2018-09-10T16:29:51.877Z,41.22
2018-09-10T16:32:20.422Z,43.17
2018-09-10T16:34:50.785Z,44.41
2018-09-10T16:37:19.307Z,45.53
2018-09-10T16:39:47.888Z,44.27
2018-09-10T16:42:16.749Z,43.51
2018-09-10T16:44:45.303Z,43.41
2018-09-10T16:47:13.875Z,43.08
2018-09-10T16:49:42.406Z,43.43
2018-09-10T16:52:11.540Z,43.03
2018-09-10T16:54:41.073Z,43.75
2018-09-10T16:57:09.820Z,44.91
2018-09-10T16:59:39.808Z,45.06
2018-09-10T17:02:09.122Z,45.17
2018-09-10T17:04:38.011Z,45.85
2018-09-10T17:07:06.719Z,46.83
2018-09-10T17:09:35.253Z,46.72
2018-09-10T17:12:03.854Z,47.17
2018-09-10T17:14:35.659Z,47.00
2018-09-10T17:17:05.609Z,47.50
2018-09-10T17:19:34.562Z,48.55
2018-09-10T17:22:03.575Z,48.45
2018-09-10T17:24:34.537Z,48.39
2018-09-10T17:27:09.731Z,49.30
2018-09-10T17:29:38.645Z,48.49
2018-09-10T17:32:07.932Z,48.88
2018-09-10T17:34:37.097Z,49.26
2018-09-10T17:37:07.484Z,48.92
2018-09-10T17:39:36.005Z,49.16
2018-09-10T17:42:04.573Z,49.11
2018-09-10T17:44:33.517Z,49.44
2018-09-10T17:47:02.151Z,49.52
2018-09-10T17:49:30.627Z,50.14
2018-09-10T17:51:59.185Z,50.27
2018-09-10T17:54:27.704Z,50.94
2018-09-10T17:56:56.256Z,50.90
2018-09-10T17:59:24.861Z,51.31
2018-09-10T18:01:59.052Z,51.17
2018-09-10T18:04:27.561Z,51.97
2018-09-10T18:06:56.129Z,52.08
2018-09-10T18:09:24.709Z,52.05
2018-09-10T18:11:53.261Z,53.71
2018-09-10T18:14:21.817Z,54.54
2018-09-10T18:16:50.364Z,54.85
2018-09-10T18:19:19.518Z,55.08
2018-09-10T18:21:48.121Z,55.28
2018-09-10T18:24:16.661Z,54.73
2018-09-10T18:26:46.291Z,54.69
2018-09-10T18:29:15.363Z,55.13
2018-09-10T18:31:43.901Z,55.73
2018-09-10T18:34:13.022Z,56.01
2018-09-10T18:36:44.232Z,56.65
2018-09-10T18:39:12.960Z,56.39
2018-09-10T18:41:42.163Z,57.26
2018-09-10T18:44:10.709Z,56.64
2018-09-10T18:46:39.416Z,57.19
2018-09-10T18:49:08.046Z,57.77
2018-09-10T18:51:36.593Z,58.46
2018-09-10T18:54:05.173Z,57.80
2018-09-10T18:56:33.702Z,58.22
2018-09-10T18:59:02.281Z,59.29
2018-09-10T19:01:32.707Z,58.34
2018-09-10T19:04:02.433Z,60.04
2018-09-10T19:06:31.293Z,59.06
2018-09-10T19:08:59.871Z,58.26
2018-09-10T19:11:39.476Z,56.59
2018-09-10T19:14:08.196Z,57.09
2018-09-10T19:16:37.363Z,57.11
2018-09-10T19:19:05.937Z,56.30
2018-09-10T19:21:34.532Z,56.23
2018-09-10T19:24:03.123Z,56.45
2018-09-10T19:26:31.916Z,56.94
2018-09-10T19:29:03.528Z,56.73
2018-09-10T19:31:54.403Z,57.25
2018-09-10T19:34:23.213Z,57.52
2018-09-10T19:36:52.710Z,57.21
2018-09-10T19:39:22.716Z,57.49
2018-09-10T19:41:51.569Z,57.23
2018-09-10T19:44:22.564Z,57.39
2018-09-10T19:46:52.067Z,56.82
2018-09-10T19:49:20.674Z,56.79
2018-09-10T19:51:49.668Z,56.73
2018-09-10T19:54:20.239Z,57.29
2018-09-10T19:56:50.174Z,57.89
2018-09-10T19:59:18.863Z,58.55
2018-09-10T20:01:47.529Z,58.15
2018-09-10T20:04:17.451Z,58.74
2018-09-10T20:06:46.021Z,59.25
2018-09-10T20:09:15.368Z,59.22
2018-09-10T20:11:44.067Z,60.47
2018-09-10T20:14:12.625Z,60.90
2018-09-10T20:16:41.205Z,61.89
2018-09-10T20:19:09.789Z,63.35
2018-09-10T20:21:38.413Z,64.70
2018-09-10T20:24:06.583Z,66.89
2018-09-10T20:26:35.149Z,66.36
2018-09-10T20:29:03.777Z,67.36
2018-09-10T20:31:32.304Z,68.68
2018-09-10T20:34:08.059Z,68.11
2018-09-10T20:36:37.620Z,68.43
2018-09-10T20:39:09.612Z,69.16
2018-09-10T20:41:38.169Z,69.85
2018-09-10T20:44:06.932Z,72.50
2018-09-10T20:46:35.529Z,72.78
2018-09-10T20:49:09.429Z,73.07
2018-09-10T20:51:38.182Z,72.49
2018-09-10T20:54:06.873Z,71.90
2018-09-10T20:56:35.522Z,73.16
2018-09-10T20:59:04.106Z,73.03
2018-09-10T21:01:32.680Z,74.53
2018-09-10T21:04:01.284Z,71.93
2018-09-10T21:06:29.891Z,72.96
2018-09-10T21:09:00.501Z,74.96
2018-09-10T21:11:31.853Z,74.04
2018-09-10T21:14:04.005Z,75.24
2018-09-10T21:16:38.228Z,76.32
2018-09-10T21:19:08.392Z,78.95
2018-09-10T21:21:40.123Z,76.69
2018-09-10T21:24:12.124Z,77.27
2018-09-10T21:26:41.828Z,79.17
2018-09-10T21:29:13.473Z,77.81
2018-09-10T21:31:49.168Z,77.63
2018-09-10T21:34:22.831Z,78.28
2018-09-10T21:36:52.202Z,79.17
2018-09-10T21:39:22.655Z,79.55
2018-09-10T21:41:56.033Z,80.67
2018-09-10T21:44:27.322Z,80.32
2018-09-10T21:46:59.704Z,81.42
2018-09-10T21:49:31.843Z,80.67
2018-09-10T21:52:06.584Z,81.63
2018-09-10T21:54:35.877Z,81.86
2018-09-10T21:57:06.009Z,80.76
2018-09-10T21:59:36.665Z,81.05
2018-09-10T22:02:09.600Z,81.83
2018-09-10T22:04:40.213Z,82.20
2018-09-10T22:07:10.847Z,80.59
2018-09-10T22:09:40.080Z,80.98
2018-09-10T22:12:10.421Z,79.58
2018-09-10T22:14:40.629Z,80.13
2018-09-10T22:17:09.431Z,81.83
2018-09-10T22:19:42.565Z,81.85
2018-09-10T22:22:11.297Z,80.98
2018-09-10T22:24:40.194Z,83.19
2018-09-10T22:27:10.823Z,80.80
2018-09-10T22:29:45.454Z,81.14
2018-09-10T22:32:17.293Z,80.96
2018-09-10T22:34:49.755Z,83.59
2018-09-10T22:37:21.643Z,82.90
2018-09-10T22:39:53.592Z,83.30
2018-09-10T22:42:23.327Z,83.13
2018-09-10T22:44:54.107Z,83.62
2018-09-10T22:47:27.010Z,82.66
2018-09-10T22:50:00.221Z,83.21
2018-09-10T22:52:32.205Z,84.80
2018-09-10T22:55:04.605Z,85.30
2018-09-10T22:57:37.145Z,84.11
2018-09-10T23:00:08.370Z,84.67
2018-09-10T23:02:41.424Z,85.50
2018-09-10T23:05:13.740Z,85.34
2018-09-10T23:07:44.240Z,84.90
2018-09-10T23:10:15.013Z,85.44
2018-09-10T23:12:43.776Z,87.17
2018-09-10T23:15:12.312Z,86.10
2018-09-10T23:17:41.243Z,84.60
2018-09-10T23:20:09.778Z,84.55
2018-09-10T23:22:38.338Z,84.59
2018-09-10T23:25:06.909Z,85.68
2018-09-10T23:27:35.473Z,86.55
2018-09-10T23:30:04.276Z,86.21
2018-09-10T23:32:32.840Z,85.83
2018-09-10T23:35:01.689Z,86.56
2018-09-10T23:37:30.557Z,86.70
2018-09-10T23:39:59.105Z,87.32
2018-09-10T23:42:27.657Z,88.22
2018-09-10T23:44:56.177Z,86.46
2018-09-10T23:47:24.778Z,87.05
2018-09-10T23:49:53.336Z,87.64
2018-09-10T23:52:21.887Z,88.44
2018-09-10T23:54:50.413Z,88.10
2018-09-10T23:57:18.975Z,88.09
2018-09-10T23:59:47.520Z,88.51
